Time;durP1;ratioP1;P1;durP2;ratioP2;P2;SDS_P1;SDS_P2;PMS_P1;PMS_P2;Temp;Humidity;BMP_temperature;BMP_pressure;BME280_temperature;BME280_humidity;BME280_pressure;Samples;Min_cycle;Max_cycle;Signal;HPM_P1;HPM_P2
2023/01/03 00:01:55;;;;;;;0.35;0.35;;;;;;;7.13;100.00;99140.94;15274784;19;20039;-58
2023/01/03 00:07:35;;;;;;;0.65;0.50;;;;;;;7.16;100.00;99146.06;15272642;19;20032;-58
2023/01/03 00:13:00;;;;;;;1.05;0.60;;;;;;;7.24;100.00;99163.25;15274605;19;20106;-54
2023/01/03 00:18:24;;;;;;;0.63;0.43;;;;;;;7.20;100.00;99174.34;15282290;19;20082;-54
2023/01/03 00:23:52;;;;;;;0.50;0.40;;;;;;;7.24;100.00;99173.97;15287753;19;20022;-54
2023/01/03 00:29:17;;;;;;;1.55;0.70;;;;;;;7.28;100.00;99179.09;15287777;19;20019;-54
2023/01/03 00:34:46;;;;;;;1.05;0.73;;;;;;;7.27;100.00;99177.41;15292244;19;20023;-58
2023/01/03 00:40:14;;;;;;;1.33;0.90;;;;;;;7.27;100.00;99186.28;15287714;19;20006;-57
2023/01/03 00:45:39;;;;;;;0.88;0.70;;;;;;;7.24;100.00;99184.72;15288180;19;20026;-56
2023/01/03 00:51:05;;;;;;;1.60;0.60;;;;;;;7.21;100.00;99192.13;15288509;19;20090;-57
2023/01/03 00:56:35;;;;;;;1.05;0.80;;;;;;;7.14;100.00;99198.94;14774624;19;9999967;-56
2023/01/03 01:02:01;;;;;;;0.82;0.80;;;;;;;7.00;100.00;99211.56;15291865;19;20793;-58
2023/01/03 01:07:26;;;;;;;1.83;0.70;;;;;;;6.92;100.00;99227.41;15287833;19;20094;-54
2023/01/03 01:12:53;;;;;;;1.42;0.63;;;;;;;6.83;100.00;99236.16;15275280;19;20021;-57
2023/01/03 01:18:18;;;;;;;1.05;0.60;;;;;;;6.75;100.00;99248.31;15287228;19;20025;-57
2023/01/03 01:23:44;;;;;;;0.85;0.60;;;;;;;6.75;100.00;99261.69;15288516;19;20034;-57
2023/01/03 01:29:13;;;;;;;0.82;0.82;;;;;;;6.76;100.00;99254.50;15278985;19;20373;-58
2023/01/03 01:34:38;;;;;;;0.88;0.60;;;;;;;6.79;100.00;99263.16;15289767;19;20014;-58
2023/01/03 01:40:09;;;;;;;1.52;0.68;;;;;;;6.87;100.00;99264.41;15288011;19;20039;-59
2023/01/03 01:45:44;;;;;;;0.60;0.50;;;;;;;6.85;100.00;99271.72;15280317;19;20036;-59
2023/01/03 01:51:11;;;;;;;1.00;0.60;;;;;;;6.87;100.00;99275.97;15286178;19;20527;-57
2023/01/03 01:56:39;;;;;;;1.50;0.50;;;;;;;6.84;100.00;99280.72;15286957;19;20017;-58
2023/01/03 02:02:08;;;;;;;1.45;0.50;;;;;;;6.87;100.00;99292.03;15281595;19;20384;-57
2023/01/03 02:07:33;;;;;;;0.55;0.40;;;;;;;6.88;100.00;99282.19;15283540;19;20090;-57
2023/01/03 02:13:09;;;;;;;1.13;0.55;;;;;;;6.77;100.00;99289.19;15282276;19;20014;-57
2023/01/03 02:18:49;;;;;;;2.30;0.52;;;;;;;6.76;100.00;99290.16;15277675;19;20014;-58
2023/01/03 02:24:51;;;;;;;0.70;0.50;;;;;;;6.72;100.00;99286.03;15281617;19;20467;-57
2023/01/03 02:30:38;;;;;;;0.52;0.52;;;;;;;6.59;100.00;99286.06;15279815;19;20011;-57
2023/01/03 02:36:11;;;;;;;0.73;0.57;;;;;;;6.48;100.00;99276.19;15283408;19;20021;-60
2023/01/03 02:41:47;;;;;;;0.57;0.50;;;;;;;6.54;100.00;99288.25;15280020;19;20021;-59
2023/01/03 02:47:23;;;;;;;0.50;0.50;;;;;;;6.59;100.00;99286.06;15278047;19;20512;-61
2023/01/03 02:52:52;;;;;;;1.05;0.70;;;;;;;6.52;100.00;99290.19;15268392;19;20015;-62
2023/01/03 02:58:20;;;;;;;0.95;0.63;;;;;;;6.53;100.00;99291.91;15282456;19;20284;-63
2023/01/03 03:03:49;;;;;;;1.08;0.55;;;;;;;6.47;100.00;99297.69;15275140;19;20034;-63
2023/01/03 03:09:13;;;;;;;0.57;0.57;;;;;;;6.38;100.00;99303.72;15280456;19;20018;-63
2023/01/03 03:14:44;;;;;;;0.98;0.75;;;;;;;6.35;100.00;99301.31;15280015;19;20022;-64
2023/01/03 03:26:02;;;;;;;0.90;0.82;;;;;;;6.08;100.00;99310.38;15280866;19;20039;-62
2023/01/03 03:31:31;;;;;;;0.93;0.90;;;;;;;5.91;100.00;99317.72;15276196;19;20018;-62
2023/01/03 03:37:01;;;;;;;1.10;1.00;;;;;;;5.78;100.00;99314.22;15275635;19;20123;-62
2023/01/03 03:48:15;;;;;;;1.10;1.00;;;;;;;5.62;100.00;99327.81;15278921;19;20348;-62
2023/01/03 03:53:46;;;;;;;1.23;1.00;;;;;;;5.47;100.00;99335.94;15276457;19;20838;-63
2023/01/03 03:59:12;;;;;;;1.37;1.20;;;;;;;5.38;100.00;99339.25;15292417;19;20021;-63
2023/01/03 04:04:45;;;;;;;1.35;1.20;;;;;;;5.34;100.00;99359.16;15290453;19;20015;-63
2023/01/03 04:10:18;;;;;;;2.50;1.25;;;;;;;5.17;100.00;99363.81;15284017;19;20081;-61
2023/01/03 04:15:43;;;;;;;1.20;1.10;;;;;;;5.04;100.00;99371.78;15293570;19;20022;-62
2023/01/03 04:21:08;;;;;;;2.63;1.30;;;;;;;4.93;100.00;99383.19;15286464;19;20014;-61
2023/01/03 04:26:41;;;;;;;1.85;1.30;;;;;;;4.93;100.00;99385.84;15286066;19;20025;-62
2023/01/03 04:32:06;;;;;;;1.38;1.13;;;;;;;4.92;100.00;99393.97;15285217;19;20030;-63
2023/01/03 04:37:30;;;;;;;1.65;1.17;;;;;;;4.87;100.00;99401.41;15292943;19;20022;-60
2023/01/03 04:48:34;;;;;;;3.45;1.40;;;;;;;4.75;100.00;99398.59;15288670;19;20037;-60
2023/01/03 04:53:59;;;;;;;1.20;1.10;;;;;;;4.75;100.00;99405.75;15284537;19;20067;-60
2023/01/03 04:59:27;;;;;;;1.60;1.20;;;;;;;4.78;100.00;99418.88;15282796;19;20509;-60
2023/01/03 05:04:51;;;;;;;2.08;1.17;;;;;;;4.77;100.00;99415.38;15287482;19;20035;-60
2023/01/03 05:10:17;;;;;;;2.25;1.13;;;;;;;4.76;100.00;99435.03;15284623;19;20376;-57
2023/01/03 05:15:44;;;;;;;1.45;1.35;;;;;;;4.65;100.00;99442.88;15282599;19;20391;-58
2023/01/03 05:26:55;;;;;;;1.52;1.35;;;;;;;4.71;100.00;99453.13;15289740;19;20086;-57
2023/01/03 05:32:23;;;;;;;1.75;1.48;;;;;;;4.78;100.00;99464.28;15283953;19;20105;-56
2023/01/03 05:37:48;;;;;;;1.85;1.20;;;;;;;4.83;100.00;99456.84;15287762;19;20020;-58
2023/01/03 05:43:14;;;;;;;1.23;1.00;;;;;;;4.94;100.00;99454.34;15285475;19;20018;-59
2023/01/03 05:48:41;;;;;;;1.55;1.20;;;;;;;5.06;100.00;99435.78;15282666;19;20050;-60
2023/01/03 05:54:06;;;;;;;1.80;1.20;;;;;;;5.07;100.00;99430.34;15281788;19;20026;-59
2023/01/03 05:59:30;;;;;;;1.75;1.23;;;;;;;5.03;100.00;99433.31;15279505;19;20082;-58
2023/01/03 06:04:58;;;;;;;3.00;1.20;;;;;;;5.07;100.00;99437.50;15284808;19;20015;-58
2023/01/03 06:10:23;;;;;;;3.30;1.20;;;;;;;5.03;100.00;99441.31;15285198;19;20014;-57
2023/01/03 06:17:53;;;;;;;1.67;1.35;;;;;;;4.97;100.00;99441.75;15282896;19;20018;-56
2023/01/03 06:21:41;;;;;;;1.40;1.20;;;;;;;4.88;100.00;99445.84;15278318;19;20556;-58
2023/01/03 06:27:06;;;;;;;1.30;1.20;;;;;;;4.78;100.00;99442.91;15285304;19;20246;-59
2023/01/03 06:32:31;;;;;;;1.77;1.30;;;;;;;4.70;100.00;99443.44;15274733;19;20372;-58
2023/01/03 06:37:59;;;;;;;2.15;1.30;;;;;;;4.64;100.00;99443.81;15284227;19;20492;-57
2023/01/03 06:43:23;;;;;;;1.60;1.50;;;;;;;4.56;100.00;99449.63;15281716;19;20464;-60
2023/01/03 06:54:41;;;;;;;2.00;1.60;;;;;;;4.50;100.00;99468.72;15354415;19;20024;-59
2023/01/03 07:00:06;;;;;;;2.30;1.42;;;;;;;4.37;100.00;99475.78;15355390;19;20358;-54
2023/01/03 07:05:34;;;;;;;2.00;1.60;;;;;;;4.26;100.00;99479.97;15345843;19;20017;-61
2023/01/03 07:10:52;;;;;;;2.47;1.85;;;;;;;4.19;100.00;99491.94;15349132;19;20510;-60
2023/01/03 07:16:21;;;;;;;2.60;1.77;;;;;;;4.11;100.00;99500.44;15356770;19;20009;-57
2023/01/03 07:21:49;;;;;;;1.92;1.83;;;;;;;4.06;100.00;99504.34;15340695;19;20017;-61
2023/01/03 07:27:13;;;;;;;1.80;1.70;;;;;;;4.01;100.00;99516.13;15351691;19;20020;-58
2023/01/03 07:32:38;;;;;;;2.78;1.80;;;;;;;4.00;100.00;99525.09;15352766;19;20023;-58
2023/01/03 07:38:05;;;;;;;3.72;1.80;;;;;;;4.01;100.00;99534.81;15346032;19;20074;-57
2023/01/03 07:43:39;;;;;;;2.10;1.90;;;;;;;3.97;100.00;99541.25;15351546;19;20069;-56
2023/01/03 07:49:10;;;;;;;3.03;1.90;;;;;;;3.95;100.00;99551.16;15347380;19;20018;-58
2023/01/03 07:54:38;;;;;;;1.90;1.77;;;;;;;3.97;100.00;99565.25;15346235;19;20470;-57
2023/01/03 08:00:02;;;;;;;3.88;2.10;;;;;;;3.97;100.00;99578.59;15291500;19;20423;-58
2023/01/03 08:05:27;;;;;;;2.10;1.90;;;;;;;3.98;100.00;99579.47;15288446;19;20040;-58
2023/01/03 08:16:32;;;;;;;1.63;1.52;;;;;;;3.99;100.00;99583.84;15292252;19;20307;-58
2023/01/03 08:21:57;;;;;;;4.13;1.70;;;;;;;3.99;100.00;99595.38;15284092;19;20018;-59
2023/01/03 08:27:25;;;;;;;1.77;1.50;;;;;;;4.06;100.00;99600.34;15284009;19;20010;-58
2023/01/03 08:32:50;;;;;;;1.98;1.48;;;;;;;4.09;100.00;99600.16;15289227;19;20719;-58
2023/01/03 08:38:20;;;;;;;2.50;1.60;;;;;;;4.11;100.00;99608.94;15290087;19;20026;-61
2023/01/03 08:43:50;;;;;;;2.47;1.55;;;;;;;4.18;100.00;99615.59;15280677;19;20028;-59
2023/01/03 08:49:22;;;;;;;1.75;1.30;;;;;;;4.30;100.00;99604.19;15285945;19;20430;-78
2023/01/03 08:54:47;;;;;;;2.40;1.60;;;;;;;4.36;100.00;99602.13;15302450;19;20006;-79
2023/01/03 09:00:17;;;;;;;1.98;1.60;;;;;;;4.45;100.00;99609.56;15298307;19;20058;-79
2023/01/03 09:05:41;;;;;;;1.83;1.20;;;;;;;4.62;100.00;99612.09;15296429;19;20010;-78
2023/01/03 09:11:07;;;;;;;1.85;1.10;;;;;;;4.74;100.00;99609.63;15289704;19;20013;-77
2023/01/03 09:16:35;;;;;;;1.83;1.17;;;;;;;4.87;100.00;99613.25;15291064;19;20022;-77
2023/01/03 09:22:05;;;;;;;2.08;1.10;;;;;;;5.01;100.00;99614.16;15293247;19;20020;-77
2023/01/03 09:27:30;;;;;;;1.23;1.13;;;;;;;5.11;100.00;99609.13;15291188;19;20019;-76
2023/01/03 09:33:01;;;;;;;3.75;1.52;;;;;;;5.25;100.00;99619.78;15296035;19;20029;-78
2023/01/03 09:38:25;;;;;;;2.72;2.00;;;;;;;5.37;100.00;99626.16;15303454;19;20018;-77
2023/01/03 09:43:54;;;;;;;1.98;1.33;;;;;;;5.51;100.00;99611.91;15299162;19;20010;-77
2023/01/03 09:49:28;;;;;;;1.17;1.00;;;;;;;5.67;100.00;99595.72;15287152;19;20014;-78
2023/01/03 10:06:28;;;;;;;1.63;0.82;;;;;;;6.19;100.00;99578.03;15302109;19;20031;-77
2023/01/03 10:12:01;;;;;;;1.23;0.70;;;;;;;6.31;100.00;99579.00;15306013;19;20355;-77
2023/01/03 10:17:36;;;;;;;3.15;0.70;;;;;;;6.40;100.00;99574.84;15285906;19;20010;-77
2023/01/03 10:23:05;;;;;;;2.22;0.80;;;;;;;6.47;100.00;99568.06;15288121;19;20018;-78
2023/01/03 10:28:37;;;;;;;1.10;0.82;;;;;;;6.56;100.00;99574.63;15294199;19;20014;-79
2023/01/03 10:34:02;;;;;;;2.78;0.90;;;;;;;6.62;100.00;99566.19;15290144;19;20010;-78
2023/01/03 10:39:33;;;;;;;2.28;0.90;;;;;;;6.66;100.00;99556.94;15293060;19;20055;-78
2023/01/03 10:45:10;;;;;;;1.00;0.90;;;;;;;6.76;100.00;99549.13;15293177;19;20728;-77
2023/01/03 10:50:39;;;;;;;1.45;0.80;;;;;;;6.84;100.00;99548.56;15287192;19;20010;-77
2023/01/03 10:56:10;;;;;;;0.60;0.60;;;;;;;6.96;100.00;99542.34;15283291;19;20074;-76
2023/01/03 11:01:35;;;;;;;1.20;0.60;;;;;;;7.03;100.00;99532.88;15277467;19;20018;-77
2023/01/03 11:07:21;;;;;;;0.77;0.60;;;;;;;7.15;100.00;99536.50;15271299;19;20341;-77
2023/01/03 11:12:48;;;;;;;1.30;0.60;;;;;;;7.28;100.00;99540.97;15275829;19;20018;-76
2023/01/03 11:18:25;;;;;;;1.00;0.45;;;;;;;7.45;100.00;99542.41;15279328;19;20045;-76
2023/01/03 11:24:14;;;;;;;1.08;0.40;;;;;;;7.69;100.00;99519.13;15273767;19;20094;-77
2023/01/03 11:30:03;;;;;;;1.30;0.50;;;;;;;7.81;100.00;99519.16;15276128;19;20015;-77
2023/01/03 11:35:41;;;;;;;0.63;0.40;;;;;;;7.91;100.00;99511.25;15298018;19;20021;-77
2023/01/03 11:41:20;;;;;;;0.90;0.30;;;;;;;7.88;100.00;99501.63;15290797;19;20505;-77
2023/01/03 11:46:59;;;;;;;1.13;0.43;;;;;;;7.86;100.00;99495.50;15295301;19;20025;-77
2023/01/03 11:52:38;;;;;;;1.40;0.40;;;;;;;7.98;100.00;99496.41;15287852;19;20082;-77
2023/01/03 11:58:20;;;;;;;1.65;0.40;;;;;;;8.02;100.00;99493.38;15292651;19;20086;-77
2023/01/03 12:04:10;;;;;;;1.20;0.40;;;;;;;7.99;100.00;99506.19;15295797;19;20352;-76
2023/01/03 12:09:43;;;;;;;0.73;0.30;;;;;;;8.04;100.00;99492.41;15291264;19;20634;-76
2023/01/03 12:15:13;;;;;;;1.58;0.50;;;;;;;8.15;100.00;99497.78;15290315;19;20494;-74
2023/01/03 12:20:53;;;;;;;0.93;0.40;;;;;;;8.16;100.00;99486.91;15292976;19;20568;-76
2023/01/03 12:26:18;;;;;;;0.85;0.40;;;;;;;8.23;100.00;99484.63;15287706;19;20094;-76
2023/01/03 12:31:48;;;;;;;0.90;0.30;;;;;;;8.20;100.00;99490.22;15297136;19;20042;-75
2023/01/03 12:37:20;;;;;;;0.45;0.25;;;;;;;8.28;100.00;99484.25;15296722;19;20034;-76
2023/01/03 12:42:54;;;;;;;0.52;0.30;;;;;;;8.34;100.00;99473.03;15289150;19;20021;-76
2023/01/03 12:48:40;;;;;;;1.55;0.40;;;;;;;8.21;100.00;99486.56;15288053;19;20082;-76
2023/01/03 12:54:24;;;;;;;0.93;0.40;;;;;;;8.13;100.00;99478.25;15283658;19;20106;-55
2023/01/03 13:00:25;;;;;;;1.40;0.50;;;;;;;8.02;100.00;99482.63;15279499;19;20022;-54
2023/01/03 13:05:54;;;;;;;3.53;0.57;;;;;;;7.97;100.00;99482.13;15285801;19;20006;-56
2023/01/03 13:11:30;;;;;;;1.00;0.60;;;;;;;7.99;100.00;99480.19;15292038;19;20419;-55
2023/01/03 13:16:55;;;;;;;1.38;0.40;;;;;;;8.19;100.00;99477.75;15281010;19;20070;-53
2023/01/03 13:22:46;;;;;;;1.77;0.30;;;;;;;8.23;100.00;99478.41;15288684;19;20470;-55
2023/01/03 13:28:34;;;;;;;0.73;0.32;;;;;;;8.24;100.00;99475.59;15284362;19;20013;-53
2023/01/03 13:34:04;;;;;;;0.40;0.30;;;;;;;8.33;100.00;99474.00;15278889;19;20024;-54
2023/01/03 13:39:40;;;;;;;1.58;0.40;;;;;;;8.38;100.00;99470.97;15286284;19;20035;-52
2023/01/03 13:45:35;;;;;;;1.20;0.47;;;;;;;8.45;100.00;99466.81;15285143;19;20014;-53
2023/01/03 13:51:27;;;;;;;1.30;0.70;;;;;;;8.75;100.00;99450.09;15282552;19;20356;-51
2023/01/03 13:57:11;;;;;;;0.80;0.32;;;;;;;8.81;100.00;99456.81;15282082;19;20077;-52
2023/01/03 14:03:08;;;;;;;0.28;0.25;;;;;;;8.83;100.00;99460.22;15279550;19;20043;-56
2023/01/03 14:09:03;;;;;;;0.25;0.25;;;;;;;8.79;100.00;99454.25;15283219;19;20031;-55
2023/01/03 14:14:32;;;;;;;0.50;0.40;;;;;;;8.78;100.00;99457.91;15284307;19;20357;-56
2023/01/03 14:20:00;;;;;;;2.30;0.60;;;;;;;8.79;100.00;99451.56;15283334;19;20024;-56
2023/01/03 14:25:39;;;;;;;0.63;0.50;;;;;;;8.48;100.00;99461.22;15283012;19;20003;-53
2023/01/03 14:31:10;;;;;;;0.90;0.40;;;;;;;8.31;100.00;99471.44;15279776;19;20010;-54
2023/01/03 14:36:46;;;;;;;2.67;0.40;;;;;;;8.10;100.00;99478.50;15272043;19;20017;-56
2023/01/03 14:42:16;;;;;;;0.80;0.50;;;;;;;8.10;100.00;99475.81;15279735;19;20035;-55
2023/01/03 14:47:43;;;;;;;1.00;0.52;;;;;;;8.09;100.00;99474.09;15278004;19;20020;-55
2023/01/03 14:53:10;;;;;;;0.88;0.40;;;;;;;7.99;100.00;99477.50;15278714;19;20018;-54
2023/01/03 14:58:44;;;;;;;1.92;0.80;;;;;;;7.83;100.00;99479.63;15280640;19;20479;-52
2023/01/03 15:04:09;;;;;;;1.20;0.68;;;;;;;7.65;100.00;99482.75;15277166;19;20617;-54
2023/01/03 15:09:36;;;;;;;1.52;0.88;;;;;;;7.38;100.00;99480.34;15286696;19;20015;-56
2023/01/03 15:15:04;;;;;;;1.63;0.90;;;;;;;7.21;100.00;99478.91;15298751;19;20478;-54
2023/01/03 15:20:37;;;;;;;1.92;0.90;;;;;;;6.98;100.00;99481.47;15293731;19;20022;-51
2023/01/03 15:26:02;;;;;;;1.63;0.80;;;;;;;6.81;100.00;99497.91;15293610;19;20363;-50
2023/01/03 15:31:35;;;;;;;1.88;0.85;;;;;;;6.58;100.00;99500.41;15293309;19;20014;-51
2023/01/03 15:37:05;;;;;;;1.20;0.70;;;;;;;6.47;100.00;99509.19;15293717;19;20023;-56
2023/01/03 15:48:25;;;;;;;1.90;0.90;;;;;;;6.12;100.00;99517.84;15289473;19;20015;-51
2023/01/03 15:53:49;;;;;;;1.00;0.77;;;;;;;5.93;100.00;99532.47;15290416;19;20039;-53
2023/01/03 15:59:18;;;;;;;2.92;1.00;;;;;;;5.65;100.00;99545.00;15283540;19;20032;-53
2023/01/03 16:04:47;;;;;;;1.80;0.70;;;;;;;5.45;100.00;99548.16;15289280;19;20026;-53
2023/01/03 16:10:13;;;;;;;1.27;0.90;;;;;;;5.32;100.00;99554.28;15288313;19;20366;-55
2023/01/03 16:15:42;;;;;;;1.05;0.90;;;;;;;5.16;100.00;99551.75;15291007;19;20018;-54
2023/01/03 16:21:11;;;;;;;3.17;1.20;;;;;;;5.03;100.00;99556.19;15291414;19;20029;-53
2023/01/03 16:26:35;;;;;;;1.42;1.00;;;;;;;4.97;100.00;99553.91;15288867;19;20598;-56
2023/01/03 16:32:00;;;;;;;2.40;1.13;;;;;;;4.90;100.00;99562.28;15282210;19;20014;-55
2023/01/03 16:37:27;;;;;;;1.73;0.90;;;;;;;4.77;100.00;99556.88;15289117;19;20025;-55
2023/01/03 16:42:53;;;;;;;1.30;0.90;;;;;;;4.70;100.00;99552.00;15291561;19;20006;-55
2023/01/03 16:48:21;;;;;;;1.40;0.85;;;;;;;4.67;100.00;99553.06;15280888;19;20014;-51
2023/01/03 16:53:49;;;;;;;1.40;0.90;;;;;;;4.63;100.00;99565.75;15284908;19;20014;-52
2023/01/03 16:59:16;;;;;;;1.60;0.88;;;;;;;4.57;100.00;99567.94;15280924;19;20482;-53
2023/01/03 17:04:41;;;;;;;1.40;0.82;;;;;;;4.54;100.00;99563.63;15283045;19;20370;-52
2023/01/03 17:10:10;;;;;;;1.63;1.10;;;;;;;4.55;100.00;99580.53;15284263;19;20493;-52
2023/01/03 17:15:35;;;;;;;1.85;0.90;;;;;;;4.57;100.00;99575.97;15282083;19;20873;-50
2023/01/03 17:21:02;;;;;;;1.77;1.20;;;;;;;4.57;100.00;99576.81;15283031;19;20022;-54
2023/01/03 17:26:32;;;;;;;1.40;0.80;;;;;;;4.61;100.00;99590.81;15272510;19;20616;-55
2023/01/03 17:31:57;;;;;;;1.20;1.08;;;;;;;4.68;100.00;99580.63;15281360;19;20014;-54
2023/01/03 17:37:25;;;;;;;1.88;1.10;;;;;;;4.70;100.00;99586.72;15281566;19;20022;-52
2023/01/03 17:43:21;;;;;;;1.85;1.30;;;;;;;4.81;100.00;99580.72;15281517;19;20019;-56
2023/01/03 17:54:27;;;;;;;1.92;1.30;;;;;;;4.93;100.00;99574.63;15280262;19;20019;-53
2023/01/03 17:59:55;;;;;;;2.33;1.52;;;;;;;4.97;100.00;99569.94;15285005;19;20014;-54
2023/01/03 18:05:23;;;;;;;2.10;1.90;;;;;;;5.01;100.00;99572.31;15278675;19;20022;-60
2023/01/03 18:10:52;;;;;;;5.03;2.15;;;;;;;5.07;100.00;99579.06;15276226;19;20090;-56
2023/01/03 18:16:22;;;;;;;2.15;1.60;;;;;;;5.11;100.00;99577.06;15282439;19;20023;-53
2023/01/03 18:21:48;;;;;;;2.37;1.47;;;;;;;5.14;100.00;99577.72;15274978;19;20018;-55
2023/01/03 18:27:13;;;;;;;2.35;1.50;;;;;;;5.14;100.00;99572.38;15283976;19;20014;-55
2023/01/03 18:32:43;;;;;;;1.42;1.33;;;;;;;5.15;100.00;99576.75;15274959;19;20018;-57
2023/01/03 18:38:08;;;;;;;1.77;1.50;;;;;;;5.19;100.00;99572.94;15281162;19;20022;-52
2023/01/03 18:43:33;;;;;;;2.08;1.70;;;;;;;5.24;100.00;99572.66;15277796;19;20039;-59
2023/01/03 18:49:00;;;;;;;2.47;1.63;;;;;;;5.27;100.00;99566.25;15279956;19;20010;-59
2023/01/03 18:54:28;;;;;;;1.58;1.40;;;;;;;5.28;100.00;99574.19;15269693;19;20017;-53
2023/01/03 18:59:52;;;;;;;1.50;1.40;;;;;;;5.27;100.00;99563.56;15275260;19;20269;-57
2023/01/03 19:05:20;;;;;;;2.33;1.80;;;;;;;5.23;100.00;99566.44;15273454;19;20018;-57
2023/01/03 19:10:44;;;;;;;2.50;1.65;;;;;;;5.15;100.00;99571.41;15275826;19;20392;-58
2023/01/03 19:16:09;;;;;;;2.53;1.48;;;;;;;5.03;100.00;99559.72;15276249;19;20010;-60
2023/01/03 19:21:38;;;;;;;1.85;1.50;;;;;;;4.86;100.00;99559.91;15275973;19;20499;-57
2023/01/03 19:27:05;;;;;;;3.00;1.60;;;;;;;4.77;100.00;99558.66;15271092;19;20017;-58
2023/01/03 19:32:31;;;;;;;3.83;1.42;;;;;;;4.68;100.00;99552.13;15273675;19;20010;-59
2023/01/03 19:38:00;;;;;;;1.73;1.27;;;;;;;4.62;100.00;99563.16;15287038;19;20005;-52
2023/01/03 19:43:25;;;;;;;2.97;1.40;;;;;;;4.53;100.00;99566.41;15266438;19;20920;-56
2023/01/03 19:48:49;;;;;;;2.35;1.45;;;;;;;4.47;100.00;99563.16;15276642;19;20082;-57
2023/01/03 19:54:16;;;;;;;1.52;1.20;;;;;;;4.41;100.00;99562.69;15278336;19;20014;-58
2023/01/03 19:59:44;;;;;;;2.08;1.30;;;;;;;4.40;100.00;99566.31;15284836;19;20018;-59
2023/01/03 20:05:16;;;;;;;2.15;1.38;;;;;;;4.33;100.00;99555.16;15284267;19;20022;-59
2023/01/03 20:10:46;;;;;;;2.67;1.35;;;;;;;4.29;100.00;99554.47;15288114;19;20015;-56
2023/01/03 20:16:12;;;;;;;2.97;1.33;;;;;;;4.21;100.00;99556.75;15285626;19;20073;-59
2023/01/03 20:21:41;;;;;;;4.13;1.45;;;;;;;4.15;100.00;99552.63;15290009;19;20025;-55
2023/01/03 20:27:13;;;;;;;2.72;1.52;;;;;;;4.16;100.00;99564.19;15289597;19;20016;-56
2023/01/03 20:32:38;;;;;;;2.03;1.60;;;;;;;4.18;100.00;99556.91;15277734;19;20488;-55
2023/01/03 20:38:02;;;;;;;1.85;1.30;;;;;;;4.24;100.00;99553.91;15288961;19;20010;-57
2023/01/03 20:43:31;;;;;;;3.28;1.42;;;;;;;4.29;100.00;99543.78;15284515;19;20078;-57
2023/01/03 20:48:58;;;;;;;2.70;1.40;;;;;;;4.33;100.00;99544.50;15282843;19;20003;-58
2023/01/03 20:54:23;;;;;;;2.65;1.40;;;;;;;4.39;100.00;99548.59;15282564;19;20006;-55
2023/01/03 20:59:50;;;;;;;2.50;1.27;;;;;;;4.48;100.00;99538.19;15286548;19;20006;-54
2023/01/03 21:05:16;;;;;;;1.80;1.50;;;;;;;4.53;100.00;99529.03;15276333;19;20089;-61
2023/01/03 21:10:43;;;;;;;2.92;1.50;;;;;;;4.56;100.00;99518.19;15283449;19;20501;-60
2023/01/03 21:16:10;;;;;;;2.85;1.60;;;;;;;4.59;100.00;99513.50;15283993;19;20019;-58
2023/01/03 21:21:36;;;;;;;1.75;1.50;;;;;;;4.59;100.00;99508.16;15256903;19;20109;-61
2023/01/03 21:27:01;;;;;;;3.72;1.75;;;;;;;4.55;100.00;99508.47;15286176;19;20015;-62
2023/01/03 21:32:31;;;;;;;2.83;1.92;;;;;;;4.43;100.00;99508.28;15282055;19;20022;-59
2023/01/03 21:38:14;;;;;;;2.47;1.70;;;;;;;4.39;100.00;99503.22;15279391;19;20014;-59
2023/01/03 21:43:40;;;;;;;2.92;1.50;;;;;;;4.31;100.00;99519.72;15278564;19;20022;-58
2023/01/03 21:49:07;;;;;;;3.22;1.80;;;;;;;4.23;100.00;99504.16;15285393;19;20474;-56
2023/01/03 21:54:34;;;;;;;2.10;1.63;;;;;;;4.14;100.00;99510.06;15276091;19;20014;-57
2023/01/03 21:59:58;;;;;;;2.83;1.83;;;;;;;4.05;100.00;99494.63;15283427;19;20010;-62
2023/01/03 22:05:26;;;;;;;2.78;1.80;;;;;;;3.98;100.00;99503.00;15275241;19;20025;-58
2023/01/03 22:10:50;;;;;;;3.10;1.98;;;;;;;3.91;100.00;99514.09;15279459;19;20410;-60
2023/01/03 22:16:15;;;;;;;3.33;1.90;;;;;;;3.85;100.00;99510.00;15278455;19;20423;-59
2023/01/03 22:21:42;;;;;;;3.13;1.65;;;;;;;3.79;100.00;99505.91;15279181;19;20018;-57
2023/01/03 22:27:07;;;;;;;1.95;1.75;;;;;;;3.75;100.00;99500.84;15274861;19;20015;-61
2023/01/03 22:32:32;;;;;;;3.15;2.10;;;;;;;3.72;100.00;99501.00;15271666;19;20022;-60
2023/01/03 22:37:59;;;;;;;3.22;2.20;;;;;;;3.67;100.00;99502.16;15274662;19;21364;-58
2023/01/03 22:43:24;;;;;;;3.40;1.85;;;;;;;3.64;100.00;99493.50;15276621;19;20110;-57
2023/01/03 22:48:49;;;;;;;3.10;1.90;;;;;;;3.61;100.00;99491.84;15275081;19;22253;-57
2023/01/03 22:54:17;;;;;;;3.97;2.20;;;;;;;3.54;100.00;99480.69;15274376;19;20015;-60
2023/01/03 22:59:48;;;;;;;3.83;2.30;;;;;;;3.50;100.00;99483.63;15269819;19;20637;-59
2023/01/03 23:05:14;;;;;;;2.72;2.20;;;;;;;3.47;100.00;99479.34;15272600;19;20027;-60
2023/01/03 23:10:41;;;;;;;3.72;2.40;;;;;;;3.43;100.00;99471.63;15270161;19;20015;-61
2023/01/03 23:16:07;;;;;;;3.13;2.50;;;;;;;3.41;100.00;99481.50;15277555;19;20079;-59
2023/01/03 23:21:31;;;;;;;3.67;2.47;;;;;;;3.36;100.00;99482.63;15276593;19;20665;-59
2023/01/03 23:27:05;;;;;;;4.18;2.78;;;;;;;3.30;100.00;99461.69;15284800;19;20033;-59
2023/01/03 23:32:30;;;;;;;3.38;2.83;;;;;;;3.25;100.00;99455.75;15308812;19;20031;-60
2023/01/03 23:37:56;;;;;;;4.40;3.13;;;;;;;3.20;100.00;99448.03;15301376;19;20676;-60
2023/01/03 23:43:24;;;;;;;4.78;2.85;;;;;;;3.17;100.00;99448.25;15282097;19;20021;-61
2023/01/03 23:48:50;;;;;;;5.38;3.10;;;;;;;3.12;100.00;99436.97;15291285;19;20018;-59
2023/01/03 23:54:15;;;;;;;4.53;2.90;;;;;;;3.07;100.00;99431.94;15281700;19;20020;-59
2023/01/03 23:59:42;;;;;;;5.03;2.70;;;;;;;3.03;100.00;99425.06;15288499;19;20015;-58
